Nachusa, Illinois
Current Conditions -  °F | °C
As of 12:35 PM on Thursday 30 Oct 2014 (Local Time) from KRPJ Reporting Station
Overcast Overcast  
Wind Chill: 43°   Ceiling: 8500
Heat Index: 47°   Visibility: 10mi
Dew Point: 34°   Wind: 9mph
Humidity: 60%   Direction: 240°WSW
Pressure: 30.1"   Gusts: NA
Location:  41.83°N, 89.39°W
Report Text: KRPJ 301735Z AUTO 24008KT 10SM SCT060 SCT070 OVC085 09/01 A3010 RMK AO2 T00860013
Loading
Personal Weather Stations






























Interactive Weather Map
Tropical Storm Tracking
New forecast layout! Learn more

10-Day Weather Forecast

Advertisements
Track Severe Weather on mobile